sensor_id;sensor_type;location;lat;lon;timestamp;P1;durP1;ratioP1;P2;durP2;ratioP2
8490;SDS011;4282;49.986;7.938;2023-04-28T00:00:17;4.50;;;2.70;;
8490;SDS011;4282;49.986;7.938;2023-04-28T00:02:46;4.53;;;3.00;;
8490;SDS011;4282;49.986;7.938;2023-04-28T00:05:14;6.30;;;3.30;;
8490;SDS011;4282;49.986;7.938;2023-04-28T00:07:43;3.10;;;2.80;;
8490;SDS011;4282;49.986;7.938;2023-04-28T00:10:11;5.30;;;2.70;;
8490;SDS011;4282;49.986;7.938;2023-04-28T00:12:45;5.07;;;3.40;;
8490;SDS011;4282;49.986;7.938;2023-04-28T00:15:14;4.13;;;3.33;;
8490;SDS011;4282;49.986;7.938;2023-04-28T00:17:42;5.57;;;3.40;;
8490;SDS011;4282;49.986;7.938;2023-04-28T00:20:10;4.30;;;3.07;;
8490;SDS011;4282;49.986;7.938;2023-04-28T00:22:39;4.20;;;3.33;;
8490;SDS011;4282;49.986;7.938;2023-04-28T00:25:08;4.73;;;3.43;;
8490;SDS011;4282;49.986;7.938;2023-04-28T00:27:36;5.87;;;3.60;;
8490;SDS011;4282;49.986;7.938;2023-04-28T00:30:08;7.53;;;4.20;;
8490;SDS011;4282;49.986;7.938;2023-04-28T00:32:37;6.03;;;3.60;;
8490;SDS011;4282;49.986;7.938;2023-04-28T00:35:05;4.00;;;3.60;;
8490;SDS011;4282;49.986;7.938;2023-04-28T00:37:34;6.00;;;4.00;;
8490;SDS011;4282;49.986;7.938;2023-04-28T00:40:03;6.67;;;4.10;;
8490;SDS011;4282;49.986;7.938;2023-04-28T00:42:33;7.20;;;4.47;;
8490;SDS011;4282;49.986;7.938;2023-04-28T00:45:01;4.83;;;3.40;;
8490;SDS011;4282;49.986;7.938;2023-04-28T00:47:34;7.57;;;4.13;;
8490;SDS011;4282;49.986;7.938;2023-04-28T00:50:04;6.27;;;4.47;;
8490;SDS011;4282;49.986;7.938;2023-04-28T00:52:34;4.70;;;3.90;;
8490;SDS011;4282;49.986;7.938;2023-04-28T00:55:04;6.37;;;4.30;;
8490;SDS011;4282;49.986;7.938;2023-04-28T00:57:33;6.60;;;4.20;;
8490;SDS011;4282;49.986;7.938;2023-04-28T01:00:02;5.50;;;4.63;;
8490;SDS011;4282;49.986;7.938;2023-04-28T01:02:34;5.00;;;4.07;;
8490;SDS011;4282;49.986;7.938;2023-04-28T01:05:03;8.90;;;4.63;;
8490;SDS011;4282;49.986;7.938;2023-04-28T01:07:31;7.30;;;4.60;;
8490;SDS011;4282;49.986;7.938;2023-04-28T01:10:01;4.87;;;4.20;;
8490;SDS011;4282;49.986;7.938;2023-04-28T01:12:29;4.90;;;4.23;;
8490;SDS011;4282;49.986;7.938;2023-04-28T01:14:58;6.97;;;4.67;;
8490;SDS011;4282;49.986;7.938;2023-04-28T01:17:26;7.30;;;4.87;;
8490;SDS011;4282;49.986;7.938;2023-04-28T01:19:57;7.93;;;4.60;;
8490;SDS011;4282;49.986;7.938;2023-04-28T01:22:25;5.83;;;4.67;;
8490;SDS011;4282;49.986;7.938;2023-04-28T01:24:56;6.90;;;4.93;;
8490;SDS011;4282;49.986;7.938;2023-04-28T01:27:24;6.67;;;4.30;;
8490;SDS011;4282;49.986;7.938;2023-04-28T01:29:53;6.30;;;4.00;;
8490;SDS011;4282;49.986;7.938;2023-04-28T01:32:22;5.90;;;4.57;;
8490;SDS011;4282;49.986;7.938;2023-04-28T01:34:50;5.70;;;4.93;;
8490;SDS011;4282;49.986;7.938;2023-04-28T01:37:18;5.67;;;4.77;;
8490;SDS011;4282;49.986;7.938;2023-04-28T01:39:47;6.33;;;5.40;;
8490;SDS011;4282;49.986;7.938;2023-04-28T01:42:17;4.67;;;4.20;;
8490;SDS011;4282;49.986;7.938;2023-04-28T01:44:46;7.47;;;5.13;;
8490;SDS011;4282;49.986;7.938;2023-04-28T01:47:14;7.77;;;4.83;;
8490;SDS011;4282;49.986;7.938;2023-04-28T01:49:42;7.03;;;4.93;;
8490;SDS011;4282;49.986;7.938;2023-04-28T01:52:12;5.97;;;5.10;;
8490;SDS011;4282;49.986;7.938;2023-04-28T01:54:40;8.13;;;5.33;;
8490;SDS011;4282;49.986;7.938;2023-04-28T01:57:08;6.50;;;5.20;;
8490;SDS011;4282;49.986;7.938;2023-04-28T01:59:39;5.77;;;5.10;;
8490;SDS011;4282;49.986;7.938;2023-04-28T02:02:07;5.50;;;4.83;;
8490;SDS011;4282;49.986;7.938;2023-04-28T02:04:36;6.43;;;4.60;;
8490;SDS011;4282;49.986;7.938;2023-04-28T02:07:04;7.73;;;5.07;;
8490;SDS011;4282;49.986;7.938;2023-04-28T02:09:33;6.00;;;5.00;;
8490;SDS011;4282;49.986;7.938;2023-04-28T02:12:01;7.40;;;5.50;;
8490;SDS011;4282;49.986;7.938;2023-04-28T02:14:29;8.07;;;5.00;;
8490;SDS011;4282;49.986;7.938;2023-04-28T02:17:01;7.77;;;5.17;;
8490;SDS011;4282;49.986;7.938;2023-04-28T02:19:29;6.00;;;4.73;;
8490;SDS011;4282;49.986;7.938;2023-04-28T02:21:58;7.23;;;4.67;;
8490;SDS011;4282;49.986;7.938;2023-04-28T02:24:26;6.77;;;5.00;;
8490;SDS011;4282;49.986;7.938;2023-04-28T02:26:54;6.43;;;5.00;;
8490;SDS011;4282;49.986;7.938;2023-04-28T02:29:23;6.47;;;4.43;;
8490;SDS011;4282;49.986;7.938;2023-04-28T02:31:51;8.03;;;4.93;;
8490;SDS011;4282;49.986;7.938;2023-04-28T02:34:22;6.80;;;4.43;;
8490;SDS011;4282;49.986;7.938;2023-04-28T02:36:50;5.97;;;4.97;;
8490;SDS011;4282;49.986;7.938;2023-04-28T02:39:19;7.50;;;4.87;;
8490;SDS011;4282;49.986;7.938;2023-04-28T02:41:50;6.83;;;4.97;;
8490;SDS011;4282;49.986;7.938;2023-04-28T02:44:19;5.30;;;4.53;;
8490;SDS011;4282;49.986;7.938;2023-04-28T02:46:47;6.73;;;4.63;;
8490;SDS011;4282;49.986;7.938;2023-04-28T02:49:15;7.17;;;5.13;;
8490;SDS011;4282;49.986;7.938;2023-04-28T02:51:46;6.60;;;5.07;;
8490;SDS011;4282;49.986;7.938;2023-04-28T02:54:14;6.50;;;4.67;;
8490;SDS011;4282;49.986;7.938;2023-04-28T02:56:51;9.03;;;5.53;;
8490;SDS011;4282;49.986;7.938;2023-04-28T02:59:19;5.77;;;4.73;;
8490;SDS011;4282;49.986;7.938;2023-04-28T03:01:47;7.77;;;4.93;;
8490;SDS011;4282;49.986;7.938;2023-04-28T03:04:16;6.80;;;4.87;;
8490;SDS011;4282;49.986;7.938;2023-04-28T03:06:47;6.27;;;4.43;;
8490;SDS011;4282;49.986;7.938;2023-04-28T03:09:15;6.13;;;5.03;;
8490;SDS011;4282;49.986;7.938;2023-04-28T03:11:43;6.33;;;4.57;;
8490;SDS011;4282;49.986;7.938;2023-04-28T03:14:12;7.87;;;5.20;;
8490;SDS011;4282;49.986;7.938;2023-04-28T03:16:40;6.30;;;5.07;;
8490;SDS011;4282;49.986;7.938;2023-04-28T03:19:08;7.10;;;4.97;;
8490;SDS011;4282;49.986;7.938;2023-04-28T03:21:36;7.60;;;5.10;;
8490;SDS011;4282;49.986;7.938;2023-04-28T03:24:07;6.37;;;4.93;;
8490;SDS011;4282;49.986;7.938;2023-04-28T03:26:36;8.07;;;5.10;;
8490;SDS011;4282;49.986;7.938;2023-04-28T03:29:04;6.10;;;4.90;;
8490;SDS011;4282;49.986;7.938;2023-04-28T03:31:32;5.63;;;4.87;;
8490;SDS011;4282;49.986;7.938;2023-04-28T03:34:00;7.13;;;5.30;;
8490;SDS011;4282;49.986;7.938;2023-04-28T03:36:29;7.17;;;5.03;;
8490;SDS011;4282;49.986;7.938;2023-04-28T03:38:57;10.07;;;5.53;;
8490;SDS011;4282;49.986;7.938;2023-04-28T03:41:28;7.60;;;5.23;;
8490;SDS011;4282;49.986;7.938;2023-04-28T03:43:56;6.40;;;4.93;;
8490;SDS011;4282;49.986;7.938;2023-04-28T03:46:24;6.40;;;5.13;;
8490;SDS011;4282;49.986;7.938;2023-04-28T03:48:53;5.90;;;5.33;;
8490;SDS011;4282;49.986;7.938;2023-04-28T03:51:21;7.67;;;5.27;;
8490;SDS011;4282;49.986;7.938;2023-04-28T03:53:49;6.63;;;5.73;;
8490;SDS011;4282;49.986;7.938;2023-04-28T03:56:18;8.30;;;5.60;;
8490;SDS011;4282;49.986;7.938;2023-04-28T03:58:49;6.40;;;5.53;;
8490;SDS011;4282;49.986;7.938;2023-04-28T04:01:17;7.80;;;5.40;;
8490;SDS011;4282;49.986;7.938;2023-04-28T04:03:45;6.80;;;5.73;;
8490;SDS011;4282;49.986;7.938;2023-04-28T04:06:13;7.20;;;5.93;;
8490;SDS011;4282;49.986;7.938;2023-04-28T04:08:42;10.20;;;5.63;;
8490;SDS011;4282;49.986;7.938;2023-04-28T04:11:10;6.83;;;6.10;;
8490;SDS011;4282;49.986;7.938;2023-04-28T04:13:38;8.17;;;5.77;;
8490;SDS011;4282;49.986;7.938;2023-04-28T04:16:09;10.87;;;5.53;;
8490;SDS011;4282;49.986;7.938;2023-04-28T04:18:39;9.70;;;6.20;;
8490;SDS011;4282;49.986;7.938;2023-04-28T04:21:08;8.83;;;6.07;;
8490;SDS011;4282;49.986;7.938;2023-04-28T04:23:36;10.40;;;6.30;;
8490;SDS011;4282;49.986;7.938;2023-04-28T04:26:04;7.87;;;6.43;;
8490;SDS011;4282;49.986;7.938;2023-04-28T04:28:32;7.60;;;6.13;;
8490;SDS011;4282;49.986;7.938;2023-04-28T04:31:01;7.00;;;6.30;;
8490;SDS011;4282;49.986;7.938;2023-04-28T04:33:31;9.13;;;6.53;;
8490;SDS011;4282;49.986;7.938;2023-04-28T04:36:01;8.80;;;6.10;;
8490;SDS011;4282;49.986;7.938;2023-04-28T04:38:29;7.50;;;6.30;;
8490;SDS011;4282;49.986;7.938;2023-04-28T04:40:58;9.43;;;6.60;;
8490;SDS011;4282;49.986;7.938;2023-04-28T04:43:26;8.30;;;6.80;;
8490;SDS011;4282;49.986;7.938;2023-04-28T04:45:54;12.53;;;6.13;;
8490;SDS011;4282;49.986;7.938;2023-04-28T04:48:22;9.13;;;6.60;;
8490;SDS011;4282;49.986;7.938;2023-04-28T04:50:53;8.40;;;6.10;;
8490;SDS011;4282;49.986;7.938;2023-04-28T04:53:21;7.40;;;6.37;;
8490;SDS011;4282;49.986;7.938;2023-04-28T04:55:50;8.33;;;6.77;;
8490;SDS011;4282;49.986;7.938;2023-04-28T04:58:18;6.73;;;5.63;;
8490;SDS011;4282;49.986;7.938;2023-04-28T05:00:46;8.57;;;6.97;;
8490;SDS011;4282;49.986;7.938;2023-04-28T05:03:14;7.50;;;6.07;;
8490;SDS011;4282;49.986;7.938;2023-04-28T05:05:43;7.83;;;5.77;;
8490;SDS011;4282;49.986;7.938;2023-04-28T05:08:14;6.17;;;5.37;;
8490;SDS011;4282;49.986;7.938;2023-04-28T05:10:42;14.17;;;7.30;;
8490;SDS011;4282;49.986;7.938;2023-04-28T05:13:10;8.67;;;6.43;;
8490;SDS011;4282;49.986;7.938;2023-04-28T05:15:39;7.37;;;6.63;;
8490;SDS011;4282;49.986;7.938;2023-04-28T05:18:07;8.33;;;6.57;;
8490;SDS011;4282;49.986;7.938;2023-04-28T05:20:37;11.13;;;6.70;;
8490;SDS011;4282;49.986;7.938;2023-04-28T05:23:06;9.20;;;7.07;;
8490;SDS011;4282;49.986;7.938;2023-04-28T05:25:37;9.10;;;6.60;;
8490;SDS011;4282;49.986;7.938;2023-04-28T05:28:06;8.17;;;6.93;;
8490;SDS011;4282;49.986;7.938;2023-04-28T05:30:36;10.40;;;6.70;;
8490;SDS011;4282;49.986;7.938;2023-04-28T05:33:04;10.60;;;7.93;;
8490;SDS011;4282;49.986;7.938;2023-04-28T05:35:32;10.43;;;7.07;;
8490;SDS011;4282;49.986;7.938;2023-04-28T05:38:00;8.20;;;7.33;;
8490;SDS011;4282;49.986;7.938;2023-04-28T05:40:29;9.93;;;7.73;;
8490;SDS011;4282;49.986;7.938;2023-04-28T05:43:00;10.27;;;7.20;;
8490;SDS011;4282;49.986;7.938;2023-04-28T05:45:28;11.13;;;7.03;;
8490;SDS011;4282;49.986;7.938;2023-04-28T05:47:56;7.13;;;6.43;;
8490;SDS011;4282;49.986;7.938;2023-04-28T05:50:25;7.57;;;6.33;;
8490;SDS011;4282;49.986;7.938;2023-04-28T05:52:53;8.80;;;7.07;;
8490;SDS011;4282;49.986;7.938;2023-04-28T05:55:21;8.50;;;6.30;;
8490;SDS011;4282;49.986;7.938;2023-04-28T05:57:49;10.17;;;7.07;;
8490;SDS011;4282;49.986;7.938;2023-04-28T06:00:20;9.07;;;7.03;;
8490;SDS011;4282;49.986;7.938;2023-04-28T06:02:49;10.53;;;7.33;;
8490;SDS011;4282;49.986;7.938;2023-04-28T06:05:17;9.27;;;7.17;;
8490;SDS011;4282;49.986;7.938;2023-04-28T06:07:45;7.90;;;6.60;;
8490;SDS011;4282;49.986;7.938;2023-04-28T06:10:14;11.43;;;7.50;;
8490;SDS011;4282;49.986;7.938;2023-04-28T06:12:42;11.23;;;7.10;;
8490;SDS011;4282;49.986;7.938;2023-04-28T06:15:11;8.60;;;7.07;;
8490;SDS011;4282;49.986;7.938;2023-04-28T06:17:41;9.63;;;7.23;;
8490;SDS011;4282;49.986;7.938;2023-04-28T06:20:10;8.67;;;7.03;;
8490;SDS011;4282;49.986;7.938;2023-04-28T06:22:40;7.77;;;6.60;;
8490;SDS011;4282;49.986;7.938;2023-04-28T06:25:08;8.47;;;7.30;;
8490;SDS011;4282;49.986;7.938;2023-04-28T06:27:37;9.40;;;7.23;;
8490;SDS011;4282;49.986;7.938;2023-04-28T06:30:06;12.03;;;7.53;;
8490;SDS011;4282;49.986;7.938;2023-04-28T06:32:35;12.57;;;8.43;;
8490;SDS011;4282;49.986;7.938;2023-04-28T06:35:06;10.33;;;7.47;;
8490;SDS011;4282;49.986;7.938;2023-04-28T06:37:34;13.23;;;8.70;;
8490;SDS011;4282;49.986;7.938;2023-04-28T06:40:03;8.40;;;7.50;;
8490;SDS011;4282;49.986;7.938;2023-04-28T06:42:32;9.77;;;7.53;;
8490;SDS011;4282;49.986;7.938;2023-04-28T06:45:00;11.00;;;8.30;;
8490;SDS011;4282;49.986;7.938;2023-04-28T06:47:28;10.17;;;7.27;;
8490;SDS011;4282;49.986;7.938;2023-04-28T06:49:56;12.00;;;8.50;;
8490;SDS011;4282;49.986;7.938;2023-04-28T06:52:28;11.97;;;7.93;;
8490;SDS011;4282;49.986;7.938;2023-04-28T06:54:56;10.00;;;7.83;;
8490;SDS011;4282;49.986;7.938;2023-04-28T06:57:25;10.23;;;8.20;;
8490;SDS011;4282;49.986;7.938;2023-04-28T06:59:53;11.43;;;8.60;;
8490;SDS011;4282;49.986;7.938;2023-04-28T07:02:21;12.97;;;8.37;;
8490;SDS011;4282;49.986;7.938;2023-04-28T07:04:50;11.80;;;8.33;;
8490;SDS011;4282;49.986;7.938;2023-04-28T07:07:19;11.60;;;8.30;;
8490;SDS011;4282;49.986;7.938;2023-04-28T07:09:50;10.83;;;8.40;;
8490;SDS011;4282;49.986;7.938;2023-04-28T07:12:18;10.63;;;8.27;;
8490;SDS011;4282;49.986;7.938;2023-04-28T07:14:47;15.27;;;8.83;;
8490;SDS011;4282;49.986;7.938;2023-04-28T07:17:16;11.50;;;7.57;;
8490;SDS011;4282;49.986;7.938;2023-04-28T07:19:44;11.03;;;9.00;;
8490;SDS011;4282;49.986;7.938;2023-04-28T07:22:14;12.87;;;9.23;;
8490;SDS011;4282;49.986;7.938;2023-04-28T07:24:42;13.57;;;9.43;;
8490;SDS011;4282;49.986;7.938;2023-04-28T07:27:13;13.13;;;9.83;;
8490;SDS011;4282;49.986;7.938;2023-04-28T07:29:41;13.67;;;9.47;;
8490;SDS011;4282;49.986;7.938;2023-04-28T07:32:09;12.37;;;9.67;;
8490;SDS011;4282;49.986;7.938;2023-04-28T07:34:37;14.30;;;10.10;;
8490;SDS011;4282;49.986;7.938;2023-04-28T07:37:06;11.80;;;8.77;;
8490;SDS011;4282;49.986;7.938;2023-04-28T07:39:35;13.53;;;9.63;;
8490;SDS011;4282;49.986;7.938;2023-04-28T07:42:05;11.97;;;10.00;;
8490;SDS011;4282;49.986;7.938;2023-04-28T07:44:36;11.67;;;8.80;;
8490;SDS011;4282;49.986;7.938;2023-04-28T07:47:04;16.27;;;10.90;;
8490;SDS011;4282;49.986;7.938;2023-04-28T07:49:33;14.17;;;10.60;;
8490;SDS011;4282;49.986;7.938;2023-04-28T07:52:01;13.00;;;10.17;;
8490;SDS011;4282;49.986;7.938;2023-04-28T07:54:29;14.10;;;10.60;;
8490;SDS011;4282;49.986;7.938;2023-04-28T07:56:57;14.60;;;10.50;;
8490;SDS011;4282;49.986;7.938;2023-04-28T07:59:26;11.57;;;10.40;;
8490;SDS011;4282;49.986;7.938;2023-04-28T08:01:57;12.20;;;10.07;;
8490;SDS011;4282;49.986;7.938;2023-04-28T08:04:25;15.37;;;10.73;;
8490;SDS011;4282;49.986;7.938;2023-04-28T08:06:55;12.83;;;9.70;;
8490;SDS011;4282;49.986;7.938;2023-04-28T08:09:23;12.80;;;9.70;;
8490;SDS011;4282;49.986;7.938;2023-04-28T08:11:51;11.47;;;10.10;;
8490;SDS011;4282;49.986;7.938;2023-04-28T08:14:20;14.87;;;11.20;;
8490;SDS011;4282;49.986;7.938;2023-04-28T08:16:48;13.67;;;11.07;;
8490;SDS011;4282;49.986;7.938;2023-04-28T08:19:19;13.33;;;11.53;;
8490;SDS011;4282;49.986;7.938;2023-04-28T08:21:47;15.10;;;12.37;;
8490;SDS011;4282;49.986;7.938;2023-04-28T08:24:15;15.07;;;11.03;;
8490;SDS011;4282;49.986;7.938;2023-04-28T08:26:43;15.47;;;12.17;;
8490;SDS011;4282;49.986;7.938;2023-04-28T08:29:12;15.77;;;12.03;;
8490;SDS011;4282;49.986;7.938;2023-04-28T08:31:40;15.60;;;12.20;;
8490;SDS011;4282;49.986;7.938;2023-04-28T08:34:08;14.50;;;12.47;;
8490;SDS011;4282;49.986;7.938;2023-04-28T08:36:39;13.80;;;11.83;;
8490;SDS011;4282;49.986;7.938;2023-04-28T08:39:07;14.77;;;12.37;;
8490;SDS011;4282;49.986;7.938;2023-04-28T08:41:36;19.17;;;13.70;;
8490;SDS011;4282;49.986;7.938;2023-04-28T08:44:05;17.57;;;13.50;;
8490;SDS011;4282;49.986;7.938;2023-04-28T08:46:36;16.80;;;13.83;;
8490;SDS011;4282;49.986;7.938;2023-04-28T08:49:09;16.23;;;12.43;;
8490;SDS011;4282;49.986;7.938;2023-04-28T08:51:45;18.63;;;13.47;;
8490;SDS011;4282;49.986;7.938;2023-04-28T08:54:17;14.93;;;13.00;;
8490;SDS011;4282;49.986;7.938;2023-04-28T08:56:46;16.70;;;14.57;;
8490;SDS011;4282;49.986;7.938;2023-04-28T08:59:15;15.70;;;13.73;;
8490;SDS011;4282;49.986;7.938;2023-04-28T09:01:43;18.33;;;13.73;;
8490;SDS011;4282;49.986;7.938;2023-04-28T09:04:15;15.90;;;13.93;;
8490;SDS011;4282;49.986;7.938;2023-04-28T09:06:46;16.60;;;12.73;;
8490;SDS011;4282;49.986;7.938;2023-04-28T09:09:16;15.50;;;13.10;;
8490;SDS011;4282;49.986;7.938;2023-04-28T09:11:52;17.53;;;13.23;;
8490;SDS011;4282;49.986;7.938;2023-04-28T09:14:21;14.10;;;12.27;;
8490;SDS011;4282;49.986;7.938;2023-04-28T09:16:50;14.03;;;12.53;;
8490;SDS011;4282;49.986;7.938;2023-04-28T09:19:18;15.77;;;12.90;;
8490;SDS011;4282;49.986;7.938;2023-04-28T09:21:53;16.23;;;13.53;;
8490;SDS011;4282;49.986;7.938;2023-04-28T09:24:26;17.57;;;12.73;;
8490;SDS011;4282;49.986;7.938;2023-04-28T09:26:55;16.37;;;13.63;;
8490;SDS011;4282;49.986;7.938;2023-04-28T09:29:23;15.57;;;12.00;;
8490;SDS011;4282;49.986;7.938;2023-04-28T09:31:52;17.57;;;13.47;;
8490;SDS011;4282;49.986;7.938;2023-04-28T09:34:20;16.43;;;13.17;;
8490;SDS011;4282;49.986;7.938;2023-04-28T09:36:49;20.43;;;14.97;;
8490;SDS011;4282;49.986;7.938;2023-04-28T09:39:29;17.50;;;13.17;;
8490;SDS011;4282;49.986;7.938;2023-04-28T09:41:58;16.57;;;13.20;;
8490;SDS011;4282;49.986;7.938;2023-04-28T09:44:28;19.03;;;14.60;;
8490;SDS011;4282;49.986;7.938;2023-04-28T09:46:56;18.23;;;14.63;;
8490;SDS011;4282;49.986;7.938;2023-04-28T09:49:25;14.60;;;12.93;;
8490;SDS011;4282;49.986;7.938;2023-04-28T09:51:53;18.67;;;13.63;;
8490;SDS011;4282;49.986;7.938;2023-04-28T09:54:21;17.47;;;13.40;;
8490;SDS011;4282;49.986;7.938;2023-04-28T09:56:53;19.77;;;14.03;;
8490;SDS011;4282;49.986;7.938;2023-04-28T09:59:22;16.93;;;14.23;;
8490;SDS011;4282;49.986;7.938;2023-04-28T10:01:51;20.93;;;14.50;;
8490;SDS011;4282;49.986;7.938;2023-04-28T10:04:19;17.07;;;12.37;;
8490;SDS011;4282;49.986;7.938;2023-04-28T10:06:48;20.97;;;14.40;;
8490;SDS011;4282;49.986;7.938;2023-04-28T10:09:17;15.40;;;13.37;;
8490;SDS011;4282;49.986;7.938;2023-04-28T10:11:50;14.50;;;13.00;;
8490;SDS011;4282;49.986;7.938;2023-04-28T10:14:21;16.20;;;12.87;;
8490;SDS011;4282;49.986;7.938;2023-04-28T10:16:51;17.07;;;12.83;;
8490;SDS011;4282;49.986;7.938;2023-04-28T10:19:20;19.07;;;13.70;;
8490;SDS011;4282;49.986;7.938;2023-04-28T10:21:52;17.20;;;14.03;;
8490;SDS011;4282;49.986;7.938;2023-04-28T10:24:25;18.10;;;13.17;;
8490;SDS011;4282;49.986;7.938;2023-04-28T10:26:57;16.67;;;13.17;;
8490;SDS011;4282;49.986;7.938;2023-04-28T10:29:32;15.57;;;12.53;;
8490;SDS011;4282;49.986;7.938;2023-04-28T10:32:14;14.23;;;12.33;;
8490;SDS011;4282;49.986;7.938;2023-04-28T10:34:47;17.27;;;12.30;;
8490;SDS011;4282;49.986;7.938;2023-04-28T10:37:15;16.47;;;12.40;;
8490;SDS011;4282;49.986;7.938;2023-04-28T10:42:52;14.53;;;12.40;;
8490;SDS011;4282;49.986;7.938;2023-04-28T10:48:22;15.90;;;12.47;;
8490;SDS011;4282;49.986;7.938;2023-04-28T10:51:22;16.13;;;12.97;;
8490;SDS011;4282;49.986;7.938;2023-04-28T10:54:09;16.23;;;12.70;;
8490;SDS011;4282;49.986;7.938;2023-04-28T10:59:39;15.97;;;12.90;;
8490;SDS011;4282;49.986;7.938;2023-04-28T11:05:18;14.43;;;12.80;;
8490;SDS011;4282;49.986;7.938;2023-04-28T11:13:48;13.77;;;11.40;;
8490;SDS011;4282;49.986;7.938;2023-04-28T11:16:17;15.93;;;11.87;;
8490;SDS011;4282;49.986;7.938;2023-04-28T11:18:48;13.73;;;11.47;;
8490;SDS011;4282;49.986;7.938;2023-04-28T11:21:37;16.60;;;13.03;;
8490;SDS011;4282;49.986;7.938;2023-04-28T11:24:09;16.63;;;12.57;;
8490;SDS011;4282;49.986;7.938;2023-04-28T11:26:38;17.40;;;12.93;;
8490;SDS011;4282;49.986;7.938;2023-04-28T11:29:07;17.93;;;12.63;;
8490;SDS011;4282;49.986;7.938;2023-04-28T11:31:36;14.80;;;11.97;;
8490;SDS011;4282;49.986;7.938;2023-04-28T11:34:05;19.07;;;12.37;;
8490;SDS011;4282;49.986;7.938;2023-04-28T11:36:39;14.47;;;11.73;;
8490;SDS011;4282;49.986;7.938;2023-04-28T11:39:08;16.70;;;11.77;;
8490;SDS011;4282;49.986;7.938;2023-04-28T11:41:38;15.43;;;12.73;;
8490;SDS011;4282;49.986;7.938;2023-04-28T11:44:10;14.97;;;13.13;;
8490;SDS011;4282;49.986;7.938;2023-04-28T11:46:43;14.37;;;12.50;;
8490;SDS011;4282;49.986;7.938;2023-04-28T11:49:15;13.43;;;12.00;;
8490;SDS011;4282;49.986;7.938;2023-04-28T11:51:46;14.30;;;12.17;;
8490;SDS011;4282;49.986;7.938;2023-04-28T11:54:19;14.50;;;11.83;;
8490;SDS011;4282;49.986;7.938;2023-04-28T11:56:47;12.33;;;10.17;;
8490;SDS011;4282;49.986;7.938;2023-04-28T11:59:16;12.07;;;10.03;;
8490;SDS011;4282;49.986;7.938;2023-04-28T12:01:45;10.27;;;9.23;;
8490;SDS011;4282;49.986;7.938;2023-04-28T12:04:25;12.10;;;10.03;;
8490;SDS011;4282;49.986;7.938;2023-04-28T12:07:04;10.63;;;8.87;;
8490;SDS011;4282;49.986;7.938;2023-04-28T12:09:35;10.07;;;9.13;;
8490;SDS011;4282;49.986;7.938;2023-04-28T12:12:04;10.20;;;9.03;;
8490;SDS011;4282;49.986;7.938;2023-04-28T12:17:24;10.93;;;9.50;;
8490;SDS011;4282;49.986;7.938;2023-04-28T12:19:52;11.13;;;8.80;;
8490;SDS011;4282;49.986;7.938;2023-04-28T12:22:24;10.03;;;8.93;;
8490;SDS011;4282;49.986;7.938;2023-04-28T12:25:02;10.77;;;9.57;;
8490;SDS011;4282;49.986;7.938;2023-04-28T12:27:32;10.27;;;9.17;;
8490;SDS011;4282;49.986;7.938;2023-04-28T12:30:03;9.80;;;8.80;;
8490;SDS011;4282;49.986;7.938;2023-04-28T12:32:38;11.03;;;9.93;;
8490;SDS011;4282;49.986;7.938;2023-04-28T12:35:08;10.37;;;8.87;;
8490;SDS011;4282;49.986;7.938;2023-04-28T12:37:39;10.93;;;9.83;;
8490;SDS011;4282;49.986;7.938;2023-04-28T12:40:09;11.07;;;9.93;;
8490;SDS011;4282;49.986;7.938;2023-04-28T12:42:38;10.77;;;9.67;;
8490;SDS011;4282;49.986;7.938;2023-04-28T12:45:07;12.20;;;10.40;;
8490;SDS011;4282;49.986;7.938;2023-04-28T12:47:36;11.97;;;10.60;;
8490;SDS011;4282;49.986;7.938;2023-04-28T12:50:05;12.43;;;10.40;;
8490;SDS011;4282;49.986;7.938;2023-04-28T12:52:34;13.70;;;10.60;;
8490;SDS011;4282;49.986;7.938;2023-04-28T12:55:05;11.27;;;9.67;;
8490;SDS011;4282;49.986;7.938;2023-04-28T12:57:34;11.30;;;9.70;;
8490;SDS011;4282;49.986;7.938;2023-04-28T13:00:03;11.83;;;10.67;;
8490;SDS011;4282;49.986;7.938;2023-04-28T13:02:33;10.77;;;9.67;;
8490;SDS011;4282;49.986;7.938;2023-04-28T13:05:02;11.67;;;9.90;;
8490;SDS011;4282;49.986;7.938;2023-04-28T13:07:31;11.53;;;10.30;;
8490;SDS011;4282;49.986;7.938;2023-04-28T13:10:00;12.30;;;10.93;;
8490;SDS011;4282;49.986;7.938;2023-04-28T13:12:31;13.33;;;10.83;;
8490;SDS011;4282;49.986;7.938;2023-04-28T13:15:00;12.13;;;10.77;;
8490;SDS011;4282;49.986;7.938;2023-04-28T13:17:28;13.23;;;10.97;;
8490;SDS011;4282;49.986;7.938;2023-04-28T13:19:57;13.60;;;10.87;;
8490;SDS011;4282;49.986;7.938;2023-04-28T13:22:27;12.53;;;11.23;;
8490;SDS011;4282;49.986;7.938;2023-04-28T13:24:56;14.43;;;12.13;;
8490;SDS011;4282;49.986;7.938;2023-04-28T13:27:24;13.70;;;12.20;;
8490;SDS011;4282;49.986;7.938;2023-04-28T13:29:57;11.30;;;9.90;;
8490;SDS011;4282;49.986;7.938;2023-04-28T13:32:25;11.63;;;10.43;;
8490;SDS011;4282;49.986;7.938;2023-04-28T13:34:53;14.37;;;11.70;;
8490;SDS011;4282;49.986;7.938;2023-04-28T13:37:21;13.70;;;12.27;;
8490;SDS011;4282;49.986;7.938;2023-04-28T13:39:50;16.83;;;12.47;;
8490;SDS011;4282;49.986;7.938;2023-04-28T13:42:18;15.80;;;12.60;;
8490;SDS011;4282;49.986;7.938;2023-04-28T13:44:46;14.03;;;11.73;;
8490;SDS011;4282;49.986;7.938;2023-04-28T13:47:18;13.60;;;12.20;;
8490;SDS011;4282;49.986;7.938;2023-04-28T13:49:46;16.43;;;12.93;;
8490;SDS011;4282;49.986;7.938;2023-04-28T13:52:14;18.23;;;14.40;;
8490;SDS011;4282;49.986;7.938;2023-04-28T13:54:42;17.53;;;14.03;;
8490;SDS011;4282;49.986;7.938;2023-04-28T13:57:11;15.43;;;12.37;;
8490;SDS011;4282;49.986;7.938;2023-04-28T13:59:39;14.77;;;12.43;;
8490;SDS011;4282;49.986;7.938;2023-04-28T14:02:07;13.33;;;11.93;;
8490;SDS011;4282;49.986;7.938;2023-04-28T14:04:39;12.73;;;10.97;;
8490;SDS011;4282;49.986;7.938;2023-04-28T14:07:12;13.10;;;11.13;;
8490;SDS011;4282;49.986;7.938;2023-04-28T14:09:40;11.53;;;10.33;;
8490;SDS011;4282;49.986;7.938;2023-04-28T14:12:08;12.07;;;10.67;;
8490;SDS011;4282;49.986;7.938;2023-04-28T14:14:37;12.30;;;11.10;;
8490;SDS011;4282;49.986;7.938;2023-04-28T14:17:06;13.60;;;11.70;;
8490;SDS011;4282;49.986;7.938;2023-04-28T14:19:35;11.33;;;10.13;;
8490;SDS011;4282;49.986;7.938;2023-04-28T14:22:05;12.20;;;11.00;;
8490;SDS011;4282;49.986;7.938;2023-04-28T14:24:34;13.90;;;11.63;;
8490;SDS011;4282;49.986;7.938;2023-04-28T14:27:02;12.82;;;11.02;;
8490;SDS011;4282;49.986;7.938;2023-04-28T14:29:31;14.03;;;12.63;;
8490;SDS011;4282;49.986;7.938;2023-04-28T14:31:59;16.47;;;12.57;;
8490;SDS011;4282;49.986;7.938;2023-04-28T14:34:27;13.77;;;11.73;;
8490;SDS011;4282;49.986;7.938;2023-04-28T14:36:56;14.97;;;12.00;;
8490;SDS011;4282;49.986;7.938;2023-04-28T14:39:26;16.50;;;11.73;;
8490;SDS011;4282;49.986;7.938;2023-04-28T14:41:55;14.90;;;13.37;;
8490;SDS011;4282;49.986;7.938;2023-04-28T14:44:23;13.00;;;10.90;;
8490;SDS011;4282;49.986;7.938;2023-04-28T14:46:51;13.80;;;11.17;;
8490;SDS011;4282;49.986;7.938;2023-04-28T14:49:20;12.90;;;11.60;;
8490;SDS011;4282;49.986;7.938;2023-04-28T14:51:48;12.60;;;11.40;;
8490;SDS011;4282;49.986;7.938;2023-04-28T14:54:17;13.05;;;11.63;;
8490;SDS011;4282;49.986;7.938;2023-04-28T14:56:48;11.73;;;10.03;;
8490;SDS011;4282;49.986;7.938;2023-04-28T14:59:16;12.77;;;11.37;;
8490;SDS011;4282;49.986;7.938;2023-04-28T15:01:45;14.97;;;11.80;;
8490;SDS011;4282;49.986;7.938;2023-04-28T15:04:14;13.38;;;11.93;;
8490;SDS011;4282;49.986;7.938;2023-04-28T15:06:42;12.68;;;11.35;;
8490;SDS011;4282;49.986;7.938;2023-04-28T15:09:11;13.60;;;12.17;;
8490;SDS011;4282;49.986;7.938;2023-04-28T15:11:40;12.43;;;10.65;;
8490;SDS011;4282;49.986;7.938;2023-04-28T15:14:11;11.97;;;10.77;;
8490;SDS011;4282;49.986;7.938;2023-04-28T15:16:39;13.43;;;11.85;;
8490;SDS011;4282;49.986;7.938;2023-04-28T15:19:07;14.27;;;11.90;;
8490;SDS011;4282;49.986;7.938;2023-04-28T15:21:35;11.15;;;10.05;;
8490;SDS011;4282;49.986;7.938;2023-04-28T15:24:04;12.05;;;10.13;;
8490;SDS011;4282;49.986;7.938;2023-04-28T15:26:33;9.63;;;8.27;;
8490;SDS011;4282;49.986;7.938;2023-04-28T15:29:01;11.13;;;10.10;;
8490;SDS011;4282;49.986;7.938;2023-04-28T15:31:32;11.57;;;10.35;;
8490;SDS011;4282;49.986;7.938;2023-04-28T15:34:00;11.60;;;9.60;;